Aviation Digital Data Service (ADDS)

Output produced by METARs form (1535 UTC 22 December 2014)
found at http://www.aviationweather.gov/adds/metars/
 
KGED 221354Z AUTO 02003KT 9SM OVC050 02/M02 A3029 RMK AO2 SLP258 T00221017